Address 0x1dd2723d68551b532f63db570c9be0e5512c1a7c 5

 

Overview

Balance:
1.99878347886622171 MATIC

MATIC Value:
$1.67 (@ $0.83/MATIC)

Token:
 
Txn Hash Method
Block
From
To
Value [Txn Fee]
0x372e27e9bd56d76489488463a649c9848515c4a354f6a93edafab3409bdae0aaTransfer268372122022-04-07 3:12:46180 days 19 hrs ago0x1dd2723d68551b532f63db570c9be0e5512c1a7cOUT KlimaDAO: KLIMA Token0 MATIC0.001658359045 32.2525
0xf8b2f9085f3462dd3d96e1546ed43f4d0aa4ee14fdf7cf79954a6752d691e58bSwap Exact ETH F...268371802022-04-07 3:11:38180 days 19 hrs ago0x1dd2723d68551b532f63db570c9be0e5512c1a7cOUT SushiSwap: Router1,415.031763569376312 MATIC0.009558162088 30.365543377
0x54876f1086b419d196ecaf7609d34fa72b8fb5505ba2696bbc87e2d2eeb030f9Claim230744832021-12-28 19:22:05280 days 2 hrs ago0x1dd2723d68551b532f63db570c9be0e5512c1a7cOUT 0xe1b64e20921a38c20be98f953f758e9ded80f89b0 MATIC0.000982230
0xe9cf785e46447467dcf96a0cee47b018576a34291b291d37d88320e3eb0165f4Claim230744612021-12-28 19:21:21280 days 2 hrs ago0x1dd2723d68551b532f63db570c9be0e5512c1a7cOUT 0xe1b64e20921a38c20be98f953f758e9ded80f89b0 MATIC0.0012548730
0x33902c4db9a4700c5e20950f06166bac99d0b771591792ef3b2de20c1a8fa09aStake230281832021-12-27 15:22:13281 days 6 hrs ago0x1dd2723d68551b532f63db570c9be0e5512c1a7cOUT 0x9851ebb944b44813ab8408c138b8b13ecd0b733b0 MATIC0.0076181680
0x72ae0183631175ed3f088927c99470f40263b39c80053732d3455949e23c1b6cSwap Exact Token...230281722021-12-27 15:21:29281 days 6 hrs ago0x1dd2723d68551b532f63db570c9be0e5512c1a7cOUT QuickSwap: Router0 MATIC0.0152647182
0x26e655ebce15d25bd061f44a6be058d1ee3eed600252845aa607a0abcc140daaApprove230281672021-12-27 15:21:09281 days 6 hrs ago0x1dd2723d68551b532f63db570c9be0e5512c1a7cOUT USD Coin0 MATIC0.00479257282
0x1b76f31fb4ec7ea42c671db0a7e3c2e2573101b5370ac128641a70cab5a19934Transfer230280612021-12-27 15:17:13281 days 6 hrs ago0x1dd2723d68551b532f63db570c9be0e5512c1a7cOUT0xfa16656faff6d76c0c59a798025e7eda002824330.97 MATIC0.00161777
0xfe956af24319816a2791d85d3fc785801161358727d65d6d29057ad980dae918Stake230277532021-12-27 15:06:37281 days 7 hrs ago0x1dd2723d68551b532f63db570c9be0e5512c1a7cOUT 0x9851ebb944b44813ab8408c138b8b13ecd0b733b0 MATIC0.0134394390
0x911328ccb7ba3f9d8e1bca0abc17a29491e3d87e0afcf0e2c8b2df3f400d4c15Swap Exact ETH F...230277382021-12-27 15:06:07281 days 7 hrs ago0x1dd2723d68551b532f63db570c9be0e5512c1a7cOUT QuickSwap: Router80.955309502 MATIC0.023232194
0x5dc5ef7938da83e5f1605831e74846710eccce8133bc59d78ca86a1c492cdbf0Approve230277052021-12-27 15:04:57281 days 7 hrs ago0x1dd2723d68551b532f63db570c9be0e5512c1a7cOUT MAMA DAO: MAMA Token0 MATIC0.013090448283
0x747e6c1a3a65dc1e246f048f26ab554d3618468303c79bd137047c7025da1eadAny Swap Out Und...222987912021-12-09 1:12:51299 days 21 hrs ago0x1dd2723d68551b532f63db570c9be0e5512c1a7cOUT Multichain: Router V40 MATIC0.002113830
0x7b979e22e43d1e98e6954d1768ecc7fdb9ffbad802e8f7b2e29ba0dcb270e499Approve222987902021-12-09 1:12:49299 days 21 hrs ago0x1dd2723d68551b532f63db570c9be0e5512c1a7cOUT USD Coin0 MATIC0.0011563830
0xf05f67101c60f4a60abce8b8a9ecda46f1367a6cd6266314f1c91dae01fc9057Approve222987772021-12-09 1:12:23299 days 21 hrs ago0x1dd2723d68551b532f63db570c9be0e5512c1a7cOUT USD Coin0 MATIC0.0017533830
0x787d85b64b725171bd3aa12fa1dadb755026c5138da950ca4fbe226e37188702Swap Exact Token...222987642021-12-09 1:11:57299 days 21 hrs ago0x1dd2723d68551b532f63db570c9be0e5512c1a7cOUT SushiSwap: Router0 MATIC0.0056450130
0xd10b4498b2f44703fdc0d496ef15b5fbf2f8bf208e4c03b582b05e5c43241c3dApprove222987532021-12-09 1:11:35299 days 21 hrs ago0x1dd2723d68551b532f63db570c9be0e5512c1a7cOUT KlimaDAO: KLIMA Token0 MATIC0.0013950930
0x2c8817b9e8208eb8fb696202e5a6d4ecdc502b61d59886ee93bf215df0e32a08Unstake222986762021-12-09 1:08:53299 days 21 hrs ago0x1dd2723d68551b532f63db570c9be0e5512c1a7cOUT 0x25d28a24ceb6f81015bb0b2007d795acac411b4d0 MATIC0.0026672130
0x4bc1beb2c7732015d86c478167fed10591623e60290076a5d829b843a8757059Approve222986492021-12-09 1:07:59299 days 21 hrs ago0x1dd2723d68551b532f63db570c9be0e5512c1a7cOUT 0xb0c22d8d350c67420f06f48936654f567c73e8c80 MATIC0.0013826430
0xde11462b61238c8e2581abdb29367e5edc0f56ce9177f650d3551d8198f31eb8Transfer215276882021-11-18 20:22:58320 days 1 hr ago0x1dd2723d68551b532f63db570c9be0e5512c1a7cOUT0xc32c01f09078cfb6fd391f6745d3fa646d161d5510 MATIC0.002856136
0x68af3931420d8cd834b38bb77e1b05ef79b3e313cc911fe9a2b35fc17cca9142Transfer210482862021-11-06 11:09:42332 days 11 hrs ago0x1dd2723d68551b532f63db570c9be0e5512c1a7cOUT0x6ab52f9dacb575563483dd9ff54435237f0db4725 MATIC0.00172282
0x6f6c018eb45b70c6f070b9b1e981ce359aed50234977715ea6a8838e16acca8eStake205414032021-10-24 0:44:18345 days 21 hrs ago0x1dd2723d68551b532f63db570c9be0e5512c1a7cOUT KlimaDAO: Staking0 MATIC0.003170130
0x61018b6b8302108c3991ad1736419c7f758a7d4711500f9e249bf8993dfd0605Swap Exact ETH F...205413492021-10-24 0:42:26345 days 21 hrs ago0x1dd2723d68551b532f63db570c9be0e5512c1a7cOUT SushiSwap: Router18,275.182410678325414 MATIC0.0077384430
0x99483a981549b19d08c0200483f35b98e03a1e2d9bdd9ff771443960a0071cefTransfer205412002021-10-24 0:35:46345 days 21 hrs ago0x33a28d7a0c94599edb670fcce5dfa9d4c072314e IN 0x1dd2723d68551b532f63db570c9be0e5512c1a7c18,274.85934754 MATIC0.0010550
0x767bd74b09a773c8a108d048e04e26532b3a1e4fb84b70a07227c9706ffaa598Stake204179242021-10-20 14:21:45349 days 7 hrs ago0x1dd2723d68551b532f63db570c9be0e5512c1a7cOUT KlimaDAO: Staking0 MATIC0.0033443730
0x3487bf0a0f967755272b7e65350e14d98a2b4d52ca0a908a803743398e3f11ddSwap Exact ETH F...204178962021-10-20 14:20:45349 days 7 hrs ago0x1dd2723d68551b532f63db570c9be0e5512c1a7cOUT SushiSwap: Router324 MATIC0.2579361,000
[ Download CSV Export 
Latest 6 internal transactions
Parent Txn Hash Block From To Value
0x96c5d257af7728905407a983a009972102145fca1c2b4758c007be21dbdbf25f204014692021-10-20 3:17:59349 days 18 hrs ago SushiSwap: Router0x1dd2723d68551b532f63db570c9be0e5512c1a7c22.868049872429372921 MATIC
0x05d88e1e41fd6b93494f60ece6ce5b8a902a762668869b78ac17b681703a1d25204011832021-10-20 3:08:11349 days 19 hrs ago SushiSwap: Router0x1dd2723d68551b532f63db570c9be0e5512c1a7c4.740549636724664996 MATIC
0xd635c0acc1cd7a37bfdb7d92f6991e55befa735d2bbdfd390aec8bda3a9fa479203821522021-10-19 14:08:08350 days 8 hrs ago SushiSwap: Router0x1dd2723d68551b532f63db570c9be0e5512c1a7c4.137746405202902352 MATIC
0x9c0de993c1b8471b6e9c4c1e3e507f96df05bc7f6b709d53a720f04acff94a36203719062021-10-19 7:12:08350 days 15 hrs ago SushiSwap: Router0x1dd2723d68551b532f63db570c9be0e5512c1a7c4.78941334039827634 MATIC
0x394f856ce35a0e9cfe03d71daccfe0f279f6168e1a421c40c36322e3e8ea0230203651762021-10-19 2:18:12350 days 19 hrs ago SushiSwap: Router0x1dd2723d68551b532f63db570c9be0e5512c1a7c6.301125634074769089 MATIC
0x87b1e0e08740410298a294450eaa8776e7f5ff31c2cf2b915b322fb1a82e5402203650382021-10-19 2:13:28350 days 20 hrs ago SushiSwap: Router0x1dd2723d68551b532f63db570c9be0e5512c1a7c5.314949191779536511 MATIC
[ Download CSV Export 
Loading

Contract Name:
0 MATIC

Compiler Version
0

Optimization Enabled:
0 MATIC

Other Settings:
-NA-
Block Transaction Gas Used Reward
Age Block Fee Address BC Fee Address Voting Power Jailed Incoming
Block Uncle Number Difficulty Gas Used Reward
Loading
Loading
Make sure to use the "Vote Down" button for any spammy posts, and the "Vote Up" for interesting conversations.